createdAt,value
2018-08-19T00:00:26.768Z,1.10
2018-08-19T00:02:57.775Z,0.93
2018-08-19T00:05:26.400Z,1.27
2018-08-19T00:07:55.058Z,1.20
2018-08-19T00:10:38.990Z,1.40
2018-08-19T00:13:08.788Z,1.10
2018-08-19T00:15:38.177Z,1.27
2018-08-19T00:18:07.984Z,1.30
2018-08-19T00:20:36.562Z,1.17
2018-08-19T00:23:05.272Z,1.20
2018-08-19T00:25:37.273Z,1.33
2018-08-19T00:28:14.395Z,1.50
2018-08-19T00:30:42.950Z,1.50
2018-08-19T00:33:11.775Z,1.80
2018-08-19T00:35:40.403Z,1.70
2018-08-19T00:38:12.165Z,1.40
2018-08-19T00:40:41.327Z,1.43
2018-08-19T00:43:09.935Z,1.30
2018-08-19T00:45:38.487Z,1.17
2018-08-19T00:48:07.859Z,1.40
2018-08-19T00:50:36.389Z,1.60
2018-08-19T00:53:04.972Z,1.10
2018-08-19T00:55:39.295Z,1.17
2018-08-19T00:58:13.451Z,1.27
2018-08-19T01:00:42.021Z,1.10
2018-08-19T01:03:11.358Z,1.13
2018-08-19T01:05:40.038Z,1.30
2018-08-19T01:08:09.596Z,1.30
2018-08-19T01:10:38.325Z,1.30
2018-08-19T01:13:07.140Z,1.40
2018-08-19T01:15:35.697Z,0.90
2018-08-19T01:18:04.320Z,1.50
2018-08-19T01:20:32.873Z,1.50
2018-08-19T01:23:01.433Z,1.13
2018-08-19T01:25:29.984Z,1.10
2018-08-19T01:27:58.491Z,1.30
2018-08-19T01:30:27.426Z,1.20
2018-08-19T01:32:55.965Z,1.40
2018-08-19T01:35:32.460Z,0.77
2018-08-19T01:38:01.184Z,0.87
2018-08-19T01:40:29.662Z,1.17
2018-08-19T01:42:58.171Z,0.97
2018-08-19T01:45:26.653Z,0.80
2018-08-19T01:47:55.184Z,0.87
2018-08-19T01:50:23.712Z,1.10
2018-08-19T01:52:52.226Z,1.03
2018-08-19T01:55:20.762Z,1.20
2018-08-19T01:57:50.366Z,1.23
2018-08-19T02:00:19.470Z,1.03
2018-08-19T02:02:57.290Z,1.20
2018-08-19T02:05:26.248Z,1.03
2018-08-19T02:07:57.303Z,1.10
2018-08-19T02:10:26.501Z,1.20
2018-08-19T02:12:56.249Z,1.00
2018-08-19T02:15:26.113Z,1.40
2018-08-19T02:17:57.525Z,1.00
2018-08-19T02:20:29.972Z,0.87
2018-08-19T02:22:59.339Z,1.10
2018-08-19T02:25:47.312Z,0.93
2018-08-19T02:28:20.610Z,1.10
2018-08-19T02:30:54.397Z,1.03
2018-08-19T02:33:23.825Z,0.83
2018-08-19T02:36:00.548Z,1.10
2018-08-19T02:38:29.096Z,1.20
2018-08-19T02:40:57.652Z,0.97
2018-08-19T02:43:26.130Z,1.00
2018-08-19T02:45:54.717Z,1.20
2018-08-19T02:48:47.692Z,0.93
2018-08-19T02:51:17.424Z,1.07
2018-08-19T02:53:47.233Z,0.90
2018-08-19T02:56:16.530Z,1.00
2018-08-19T02:58:46.208Z,1.43
2018-08-19T03:01:16.087Z,1.23
2018-08-19T03:03:44.599Z,1.13
2018-08-19T03:06:13.191Z,1.20
2018-08-19T03:08:47.455Z,1.40
2018-08-19T03:11:18.488Z,1.00
2018-08-19T03:13:47.309Z,1.13
2018-08-19T03:16:15.818Z,1.40
2018-08-19T03:18:44.325Z,1.03
2018-08-19T03:21:13.294Z,1.13
2018-08-19T03:23:41.786Z,0.83
2018-08-19T03:26:10.286Z,0.93
2018-08-19T03:28:38.812Z,1.00
2018-08-19T03:31:08.988Z,1.20
2018-08-19T03:33:37.472Z,0.80
2018-08-19T03:36:06.223Z,1.27
2018-08-19T03:38:34.733Z,1.20
2018-08-19T03:41:03.279Z,1.20
2018-08-19T03:43:31.818Z,0.93
2018-08-19T03:46:05.477Z,0.70
2018-08-19T03:48:34.412Z,1.23
2018-08-19T03:51:03.255Z,1.27
2018-08-19T03:53:31.757Z,1.37
2018-08-19T03:56:00.226Z,1.33
2018-08-19T03:58:28.711Z,1.03
2018-08-19T04:00:57.231Z,1.17
2018-08-19T04:03:26.552Z,1.20
2018-08-19T04:05:57.233Z,1.50
2018-08-19T04:08:40.013Z,1.13
2018-08-19T04:11:08.899Z,1.30
2018-08-19T04:13:40.453Z,1.00
2018-08-19T04:16:10.232Z,1.17
2018-08-19T04:18:40.985Z,1.37
2018-08-19T04:21:10.774Z,1.30
2018-08-19T04:23:41.855Z,1.27
2018-08-19T04:26:10.387Z,1.50
2018-08-19T04:28:41.005Z,1.33
2018-08-19T04:31:25.135Z,1.10
2018-08-19T04:33:54.520Z,1.30
2018-08-19T04:36:24.364Z,0.70
2018-08-19T04:38:52.907Z,1.00
2018-08-19T04:41:21.413Z,1.40
2018-08-19T04:43:50.092Z,1.07
2018-08-19T04:46:18.618Z,0.80
2018-08-19T04:48:47.879Z,1.40
2018-08-19T04:51:16.452Z,1.30
2018-08-19T04:53:44.948Z,1.53
2018-08-19T04:56:13.486Z,1.33
2018-08-19T04:58:42.011Z,1.57
2018-08-19T05:01:11.359Z,1.33
2018-08-19T05:03:39.999Z,1.40
2018-08-19T05:06:08.536Z,1.60
2018-08-19T05:08:37.015Z,1.40
2018-08-19T05:11:05.508Z,1.20
2018-08-19T05:13:34.010Z,1.30
2018-08-19T05:16:02.599Z,1.30
2018-08-19T05:18:31.147Z,1.50
2018-08-19T05:21:04.982Z,1.00
2018-08-19T05:23:33.483Z,1.20
2018-08-19T05:26:01.985Z,1.40
2018-08-19T05:28:30.524Z,1.13
2018-08-19T05:30:59.019Z,1.10
2018-08-19T05:33:27.511Z,1.20
2018-08-19T05:35:56.063Z,1.17
2018-08-19T05:38:24.695Z,1.40
2018-08-19T05:41:00.219Z,1.10
2018-08-19T05:43:29.479Z,1.33
2018-08-19T05:45:59.300Z,0.80
2018-08-19T05:48:27.902Z,1.10
2018-08-19T05:50:56.883Z,1.37
2018-08-19T05:53:25.448Z,0.93
2018-08-19T05:55:54.055Z,1.20
2018-08-19T05:58:22.617Z,1.17
2018-08-19T06:00:54.611Z,1.17
2018-08-19T06:03:23.114Z,1.20
2018-08-19T06:05:51.631Z,1.30
2018-08-19T06:08:20.216Z,1.50
2018-08-19T06:10:48.734Z,1.10
2018-08-19T06:13:17.273Z,1.60
2018-08-19T06:15:45.873Z,1.13
2018-08-19T06:18:14.464Z,1.37
2018-08-19T06:20:42.972Z,1.13
2018-08-19T06:23:11.490Z,1.40
2018-08-19T06:25:40.018Z,1.20
2018-08-19T06:28:08.574Z,1.23
2018-08-19T06:30:37.172Z,1.50
2018-08-19T06:33:05.780Z,1.10
2018-08-19T06:35:34.308Z,1.17
2018-08-19T06:38:02.832Z,1.10
2018-08-19T06:40:31.322Z,0.97
2018-08-19T06:42:59.861Z,1.20
2018-08-19T06:45:28.372Z,1.63
2018-08-19T06:47:56.962Z,1.40
2018-08-19T06:50:31.381Z,1.13
2018-08-19T06:52:59.930Z,1.20
2018-08-19T06:55:28.556Z,1.10
2018-08-19T06:57:58.100Z,0.80
2018-08-19T07:00:30.879Z,0.90
2018-08-19T07:03:02.717Z,0.97
2018-08-19T07:05:31.849Z,1.00
2018-08-19T07:08:00.455Z,1.17
2018-08-19T07:10:35.424Z,1.10
2018-08-19T07:13:09.354Z,1.10
2018-08-19T07:15:39.975Z,1.10
2018-08-19T07:18:10.506Z,1.00
2018-08-19T07:20:39.955Z,1.10
2018-08-19T07:23:09.017Z,1.20
2018-08-19T07:25:39.569Z,1.37
2018-08-19T07:28:09.572Z,1.20
2018-08-19T07:30:38.256Z,1.40
2018-08-19T07:33:06.943Z,0.90
2018-08-19T07:35:35.478Z,1.10
2018-08-19T07:38:04.291Z,1.17
2018-08-19T07:40:33.010Z,1.20
2018-08-19T07:43:01.656Z,1.07
2018-08-19T07:45:30.246Z,1.37
2018-08-19T07:47:58.926Z,1.20
2018-08-19T07:50:27.488Z,1.00
2018-08-19T07:52:56.046Z,1.10
2018-08-19T07:55:24.751Z,1.10
2018-08-19T07:57:53.301Z,1.07
2018-08-19T08:00:27.198Z,1.10
2018-08-19T08:02:55.816Z,1.13
2018-08-19T08:05:26.574Z,1.07
2018-08-19T08:07:55.229Z,1.00
2018-08-19T08:10:23.812Z,1.00
2018-08-19T08:13:22.866Z,1.30
2018-08-19T08:15:54.126Z,1.30
2018-08-19T08:18:22.743Z,1.27
2018-08-19T08:20:53.882Z,1.20
2018-08-19T08:23:24.251Z,0.97
2018-08-19T08:25:52.775Z,1.27
2018-08-19T08:28:21.544Z,1.20
2018-08-19T08:30:50.052Z,1.10
2018-08-19T08:33:18.586Z,1.10
2018-08-19T08:36:02.626Z,1.50
2018-08-19T08:38:31.230Z,1.23
2018-08-19T08:40:59.795Z,1.30
2018-08-19T08:43:28.369Z,1.30
2018-08-19T08:45:57.517Z,1.40
2018-08-19T08:48:26.336Z,1.33
2018-08-19T08:50:54.917Z,1.40
2018-08-19T08:53:26.746Z,1.30
2018-08-19T08:55:55.327Z,1.40
2018-08-19T08:58:23.879Z,1.13
2018-08-19T09:00:52.440Z,1.30
2018-08-19T09:03:21.085Z,1.13
2018-08-19T09:05:49.616Z,0.77
2018-08-19T09:08:18.215Z,1.10
2018-08-19T09:10:48.136Z,1.00
2018-08-19T09:13:16.735Z,1.10
2018-08-19T09:15:45.243Z,1.40
2018-08-19T09:18:13.820Z,1.00
2018-08-19T09:20:42.392Z,1.30
2018-08-19T09:23:11.167Z,1.20
2018-08-19T09:25:39.569Z,1.30
2018-08-19T09:28:08.186Z,1.53
2018-08-19T09:30:39.316Z,1.60
2018-08-19T09:33:08.188Z,1.30
2018-08-19T09:35:37.997Z,1.57
2018-08-19T09:38:18.120Z,1.50
2018-08-19T09:40:46.935Z,1.33
2018-08-19T09:43:15.603Z,1.63
2018-08-19T09:45:44.625Z,1.33
2018-08-19T09:48:13.623Z,1.60
2018-08-19T09:50:42.776Z,1.67
2018-08-19T09:53:11.384Z,1.23
2018-08-19T09:55:45.317Z,1.27
2018-08-19T09:58:20.781Z,1.20
2018-08-19T10:00:54.631Z,1.33
2018-08-19T10:03:23.280Z,1.60
2018-08-19T10:05:51.879Z,1.53
2018-08-19T10:08:22.831Z,1.30
2018-08-19T10:10:51.669Z,1.60
2018-08-19T10:13:20.272Z,1.60
2018-08-19T10:15:48.810Z,1.80
2018-08-19T10:18:17.335Z,1.47
2018-08-19T10:20:45.915Z,1.40
2018-08-19T10:23:14.433Z,1.30
2018-08-19T10:25:43.099Z,1.40
2018-08-19T10:28:11.643Z,1.53
2018-08-19T10:30:46.099Z,1.40
2018-08-19T10:33:14.672Z,1.70
2018-08-19T10:35:43.199Z,1.63
2018-08-19T10:38:11.813Z,1.80
2018-08-19T10:40:40.386Z,1.90
2018-08-19T10:43:10.269Z,2.00
2018-08-19T10:45:42.655Z,1.77
2018-08-19T10:48:12.987Z,1.83
2018-08-19T10:50:41.538Z,1.70
2018-08-19T10:53:16.336Z,1.80
2018-08-19T10:55:45.943Z,2.00
2018-08-19T10:58:14.536Z,2.10
2018-08-19T11:00:43.151Z,1.80
2018-08-19T11:03:16.990Z,1.70
2018-08-19T11:05:46.693Z,2.13
2018-08-19T11:08:15.258Z,1.70
2018-08-19T11:10:43.849Z,2.33
2018-08-19T11:13:12.462Z,2.10
2018-08-19T11:15:46.747Z,1.70
2018-08-19T11:18:36.683Z,2.07
2018-08-19T11:21:08.396Z,1.70
2018-08-19T11:23:38.218Z,1.50
2018-08-19T11:26:07.393Z,1.83
2018-08-19T11:28:38.230Z,1.90
2018-08-19T11:31:08.019Z,1.97
2018-08-19T11:33:39.868Z,1.90
2018-08-19T11:36:08.970Z,1.80
2018-08-19T11:38:38.201Z,1.87
2018-08-19T11:41:08.184Z,2.30
2018-08-19T11:43:40.041Z,2.10
2018-08-19T11:46:09.090Z,1.83
2018-08-19T11:48:38.376Z,1.57
2018-08-19T11:51:07.111Z,1.90
2018-08-19T11:53:35.819Z,1.67
2018-08-19T11:56:04.563Z,1.73
2018-08-19T11:58:46.642Z,1.97
2018-08-19T12:01:20.945Z,1.90
2018-08-19T12:03:58.192Z,2.00
2018-08-19T12:06:28.867Z,1.93
2018-08-19T12:08:58.653Z,1.67
2018-08-19T12:11:29.727Z,2.03
2018-08-19T12:13:58.347Z,2.07
2018-08-19T12:16:27.889Z,1.83
2018-08-19T12:19:05.118Z,2.00
2018-08-19T12:21:37.814Z,1.87
2018-08-19T12:24:18.457Z,1.97
2018-08-19T12:26:47.008Z,2.00
2018-08-19T12:29:15.554Z,1.47
2018-08-19T12:31:44.144Z,1.90
2018-08-19T12:34:12.674Z,1.87
2018-08-19T12:36:41.216Z,1.50
2018-08-19T12:39:10.345Z,1.40
2018-08-19T12:41:41.989Z,1.60
2018-08-19T12:44:10.578Z,1.40
2018-08-19T12:46:39.178Z,1.27
2018-08-19T12:49:07.719Z,1.57
2018-08-19T12:51:36.252Z,1.40
2018-08-19T12:54:04.885Z,1.60
2018-08-19T12:56:33.420Z,1.60
2018-08-19T12:59:01.969Z,1.90
2018-08-19T13:01:30.501Z,1.70
2018-08-19T13:03:59.062Z,1.50
2018-08-19T13:06:27.625Z,1.60
2018-08-19T13:08:56.169Z,1.70
2018-08-19T13:11:24.826Z,1.53
2018-08-19T13:13:53.407Z,1.60
2018-08-19T13:16:21.926Z,1.50
2018-08-19T13:18:50.507Z,1.70
2018-08-19T13:21:19.133Z,1.80
2018-08-19T13:23:47.658Z,2.03
2018-08-19T13:26:16.231Z,1.57
2018-08-19T13:28:48.956Z,1.72
2018-08-19T13:31:21.690Z,1.72
2018-08-19T13:33:50.211Z,1.50
2018-08-19T13:36:18.725Z,1.37
2018-08-19T13:38:47.272Z,1.80
2018-08-19T13:41:15.873Z,1.75
2018-08-19T13:43:44.442Z,1.85
2018-08-19T13:46:12.954Z,1.80
2018-08-19T13:48:41.481Z,1.87
2018-08-19T13:51:10.093Z,1.67
2018-08-19T13:53:38.753Z,1.80
2018-08-19T13:56:07.369Z,1.80
2018-08-19T13:58:36.151Z,1.90
2018-08-19T14:01:04.712Z,1.80
2018-08-19T14:03:33.250Z,1.70
2018-08-19T14:06:01.831Z,1.60
2018-08-19T14:08:31.123Z,1.67
2018-08-19T14:10:59.743Z,1.90
2018-08-19T14:13:28.317Z,1.90
2018-08-19T14:15:56.853Z,1.70
2018-08-19T14:18:25.350Z,1.90
2018-08-19T14:20:53.916Z,1.77
2018-08-19T14:23:22.428Z,1.90
2018-08-19T14:25:50.920Z,1.73
2018-08-19T14:28:19.457Z,1.80
2018-08-19T14:30:48.082Z,1.80
2018-08-19T14:33:16.540Z,1.90
2018-08-19T14:35:45.274Z,1.90
2018-08-19T14:38:13.772Z,1.90
2018-08-19T14:40:42.318Z,1.75
2018-08-19T14:43:10.888Z,1.82
2018-08-19T14:45:39.416Z,1.70
2018-08-19T14:48:08.067Z,1.82
2018-08-19T14:50:36.676Z,1.87
2018-08-19T14:53:05.262Z,1.87
2018-08-19T14:55:33.801Z,1.60
2018-08-19T14:58:02.341Z,1.50
2018-08-19T15:00:30.925Z,1.70
2018-08-19T15:02:59.483Z,1.47
2018-08-19T15:05:28.040Z,1.98
2018-08-19T15:08:00.443Z,1.65
2018-08-19T15:10:29.043Z,1.60
2018-08-19T15:12:57.585Z,1.60
2018-08-19T15:15:26.097Z,1.75
2018-08-19T15:17:59.794Z,1.63
2018-08-19T15:20:34.609Z,1.93
2018-08-19T15:23:14.724Z,1.87
2018-08-19T15:25:43.369Z,1.93
2018-08-19T15:28:11.872Z,1.73
2018-08-19T15:30:41.081Z,1.73
2018-08-19T15:33:10.888Z,1.87
2018-08-19T15:35:39.401Z,2.07
2018-08-19T15:38:08.105Z,1.80
2018-08-19T15:40:39.277Z,2.00
2018-08-19T15:43:08.478Z,1.87
2018-08-19T15:45:36.998Z,1.90
2018-08-19T15:48:06.180Z,1.70
2018-08-19T15:50:34.766Z,1.90
2018-08-19T15:53:05.104Z,1.90
2018-08-19T15:55:33.670Z,1.67
2018-08-19T15:58:03.476Z,2.27
2018-08-19T16:00:34.692Z,1.90
2018-08-19T16:03:03.336Z,2.13
2018-08-19T16:05:31.878Z,2.13
2018-08-19T16:08:00.518Z,2.00
2018-08-19T16:10:29.102Z,1.77
2018-08-19T16:12:57.690Z,1.90
2018-08-19T16:15:27.436Z,1.90
2018-08-19T16:17:57.227Z,1.70
2018-08-19T16:20:25.900Z,1.77
2018-08-19T16:22:54.419Z,1.80
2018-08-19T16:25:23.000Z,1.90
2018-08-19T16:27:52.019Z,1.87
2018-08-19T16:30:20.944Z,1.97
2018-08-19T16:32:49.471Z,2.00
2018-08-19T16:35:18.029Z,2.07
2018-08-19T16:37:46.589Z,2.50
2018-08-19T16:40:15.174Z,2.10
2018-08-19T16:42:43.708Z,1.60
2018-08-19T16:45:12.840Z,2.07
2018-08-19T16:47:41.372Z,2.13
2018-08-19T16:50:12.012Z,1.93
2018-08-19T16:52:40.571Z,2.20
2018-08-19T16:55:09.697Z,2.03
2018-08-19T16:57:38.288Z,1.63
2018-08-19T17:00:08.607Z,1.83
2018-08-19T17:02:37.282Z,1.40
2018-08-19T17:05:15.605Z,1.57
2018-08-19T17:07:44.163Z,2.03
2018-08-19T17:10:12.802Z,1.97
2018-08-19T17:12:41.221Z,2.10
2018-08-19T17:15:09.816Z,1.63
2018-08-19T17:17:38.339Z,1.63
2018-08-19T17:20:06.877Z,2.20
2018-08-19T17:22:35.730Z,2.03
2018-08-19T17:25:05.044Z,1.90
2018-08-19T17:27:34.336Z,2.07
2018-08-19T17:30:05.058Z,1.80
2018-08-19T17:32:33.740Z,1.80
2018-08-19T17:35:02.242Z,1.80
2018-08-19T17:37:30.789Z,1.57
2018-08-19T17:40:00.078Z,1.90
2018-08-19T17:42:28.628Z,1.80
2018-08-19T17:44:57.170Z,1.30
2018-08-19T17:47:25.728Z,1.47
2018-08-19T17:49:54.253Z,1.40
2018-08-19T17:52:22.854Z,1.43
2018-08-19T17:54:51.379Z,1.70
2018-08-19T17:57:19.979Z,1.40
2018-08-19T17:59:48.554Z,1.33
2018-08-19T18:02:17.018Z,1.10
2018-08-19T18:04:46.950Z,1.43
2018-08-19T18:07:19.567Z,1.60
2018-08-19T18:09:52.328Z,1.53
2018-08-19T18:12:22.010Z,1.30
2018-08-19T18:14:50.597Z,1.37
2018-08-19T18:17:19.103Z,1.40
2018-08-19T18:19:47.647Z,1.57
2018-08-19T18:22:18.680Z,1.30
2018-08-19T18:24:51.453Z,1.53
2018-08-19T18:27:20.269Z,1.73
2018-08-19T18:29:49.491Z,1.60
2018-08-19T18:32:18.027Z,1.53
2018-08-19T18:34:46.523Z,1.17
2018-08-19T18:37:15.052Z,1.30
2018-08-19T18:39:44.131Z,1.13
2018-08-19T18:42:19.814Z,1.13
2018-08-19T18:44:48.726Z,1.20
2018-08-19T18:47:17.269Z,0.93
2018-08-19T18:49:45.816Z,1.17
2018-08-19T18:52:18.200Z,1.43
2018-08-19T18:54:46.796Z,1.40
2018-08-19T18:57:15.360Z,1.60
2018-08-19T18:59:44.293Z,1.27
2018-08-19T19:02:12.920Z,1.50
2018-08-19T19:04:41.559Z,1.57
2018-08-19T19:07:10.131Z,1.70
2018-08-19T19:09:44.064Z,1.57
2018-08-19T19:12:12.915Z,1.50
2018-08-19T19:14:41.499Z,1.60
2018-08-19T19:17:10.072Z,1.40
2018-08-19T19:19:43.713Z,1.47
2018-08-19T19:22:12.428Z,1.93
2018-08-19T19:24:41.470Z,1.70
2018-08-19T19:27:10.978Z,1.53
2018-08-19T19:29:39.932Z,1.63
2018-08-19T19:32:20.975Z,2.00
2018-08-19T19:34:49.461Z,1.80
2018-08-19T19:37:18.064Z,1.37
2018-08-19T19:39:50.002Z,1.47
2018-08-19T19:42:18.770Z,1.77
2018-08-19T19:44:47.533Z,1.50
2018-08-19T19:47:16.148Z,1.80
2018-08-19T19:49:48.962Z,1.70
2018-08-19T19:52:17.475Z,1.80
2018-08-19T19:54:46.101Z,2.00
2018-08-19T19:57:15.021Z,1.43
2018-08-19T19:59:43.546Z,1.77
2018-08-19T20:02:17.064Z,1.90
2018-08-19T20:04:45.739Z,1.80
2018-08-19T20:07:14.316Z,1.70
2018-08-19T20:09:42.939Z,1.70
2018-08-19T20:12:31.885Z,1.70
2018-08-19T20:15:01.644Z,1.63
2018-08-19T20:17:30.182Z,1.50
2018-08-19T20:19:58.711Z,1.90
2018-08-19T20:22:27.264Z,2.10
2018-08-19T20:24:55.801Z,1.77
2018-08-19T20:27:24.380Z,1.67
2018-08-19T20:29:54.150Z,1.70
2018-08-19T20:32:23.030Z,1.70
2018-08-19T20:34:51.808Z,1.60
2018-08-19T20:37:22.789Z,1.70
2018-08-19T20:39:51.716Z,1.67
2018-08-19T20:42:20.539Z,1.73
2018-08-19T20:44:49.138Z,2.10
2018-08-19T20:47:17.679Z,1.63
2018-08-19T20:49:48.170Z,1.57
2018-08-19T20:52:16.815Z,1.77
2018-08-19T20:54:45.468Z,1.87
2018-08-19T20:57:13.984Z,1.60
2018-08-19T20:59:42.500Z,1.93
2018-08-19T21:02:11.090Z,1.60
2018-08-19T21:04:39.624Z,1.60
2018-08-19T21:07:08.176Z,1.90
2018-08-19T21:09:36.793Z,1.87
2018-08-19T21:12:05.390Z,1.87
2018-08-19T21:14:33.980Z,1.67
2018-08-19T21:17:04.118Z,2.07
2018-08-19T21:19:32.996Z,1.50
2018-08-19T21:22:01.538Z,1.67
2018-08-19T21:24:30.116Z,1.73
2018-08-19T21:27:01.523Z,2.03
2018-08-19T21:29:30.593Z,1.77
2018-08-19T21:31:59.149Z,1.97
2018-08-19T21:34:28.211Z,1.90
2018-08-19T21:36:57.151Z,1.80
2018-08-19T21:39:25.745Z,1.90
2018-08-19T21:41:55.271Z,2.10
2018-08-19T21:44:23.866Z,2.00
2018-08-19T21:46:52.387Z,1.57
2018-08-19T21:49:20.929Z,2.00
2018-08-19T21:51:49.504Z,1.73
2018-08-19T21:54:18.211Z,2.10
2018-08-19T21:56:46.768Z,1.67
2018-08-19T21:59:29.729Z,1.80
2018-08-19T22:02:00.145Z,1.83
2018-08-19T22:04:29.463Z,1.47
2018-08-19T22:06:58.006Z,1.70
2018-08-19T22:09:35.633Z,1.63
2018-08-19T22:12:04.877Z,1.67
2018-08-19T22:14:33.819Z,1.77
2018-08-19T22:17:09.717Z,1.87
2018-08-19T22:19:38.809Z,1.67
2018-08-19T22:22:07.827Z,2.10
2018-08-19T22:24:36.411Z,1.70
2018-08-19T22:27:23.367Z,1.90
2018-08-19T22:29:51.907Z,1.50
2018-08-19T22:32:20.480Z,1.87
2018-08-19T22:34:49.030Z,1.83
2018-08-19T22:37:17.632Z,1.73
2018-08-19T22:39:47.300Z,1.67
2018-08-19T22:42:15.843Z,1.60
2018-08-19T22:44:44.384Z,2.17
2018-08-19T22:47:12.911Z,1.57
2018-08-19T22:49:41.503Z,1.70
2018-08-19T22:52:22.245Z,1.70
2018-08-19T22:54:52.465Z,1.60
2018-08-19T22:57:21.025Z,1.60
2018-08-19T22:59:49.732Z,1.90
2018-08-19T23:02:18.356Z,1.90
2018-08-19T23:04:47.392Z,2.13
2018-08-19T23:07:15.997Z,1.80
2018-08-19T23:09:44.579Z,1.90
2018-08-19T23:12:13.171Z,1.93
2018-08-19T23:14:52.832Z,1.70
2018-08-19T23:17:21.388Z,1.87
2018-08-19T23:19:50.939Z,2.00
2018-08-19T23:22:19.472Z,1.73
2018-08-19T23:24:48.238Z,1.83
2018-08-19T23:27:16.762Z,1.53
2018-08-19T23:29:45.272Z,1.80
2018-08-19T23:32:13.833Z,1.80
2018-08-19T23:34:42.355Z,1.80
2018-08-19T23:37:10.903Z,1.83
2018-08-19T23:39:39.511Z,1.80
2018-08-19T23:42:08.075Z,2.13
2018-08-19T23:44:36.637Z,1.33
2018-08-19T23:47:05.327Z,1.83
2018-08-19T23:49:33.891Z,1.50
2018-08-19T23:52:02.439Z,1.70
2018-08-19T23:54:31.021Z,2.00
2018-08-19T23:56:59.543Z,1.77
2018-08-19T23:59:34.724Z,1.80
